Terminal Aerodrome Forecast
Issued by NWS

Home | Current Version | Previous Version | Text Only | Print | Product List | Glossary On
Versions: 1 2 3 4 5 6 7 8 9 10 11 12 13
000
FTUS42 KTBW 260531
TAFPGD
TAF
KPGD 260531Z 2606/2706 00000KT P6SM SCT250
     FM261400 05005KT P6SM FEW030 SCT250
     FM262000 24006KT P6SM VCTS BKN050CB
     FM270200 VRB03KT P6SM SCT040 BKN250=

USA.gov is the U.S. government's official web portal to all federal, state and local government web resources and services.